Time;durP1;ratioP1;P1;durP2;ratioP2;P2;SDS_P1;SDS_P2;PMS_P1;PMS_P2;Temp;Humidity;BMP_temperature;BMP_pressure;BME280_temperature;BME280_humidity;BME280_pressure;Samples;Min_cycle;Max_cycle;Signal;HPM_P1;HPM_P2
2022/10/20 00:00:00;;;;;;;7.13;5.90;;;15.10;99.90;;;;;;7388148;19;20143;-73
2022/10/20 00:02:25;;;;;;;7.55;6.00;;;15.20;99.90;;;;;;7386459;19;20182;-71
2022/10/20 00:04:51;;;;;;;8.90;5.63;;;15.30;99.90;;;;;;7386129;19;20624;-73
2022/10/20 00:07:17;;;;;;;7.68;5.78;;;15.40;99.90;;;;;;7386433;19;20457;-72
2022/10/20 00:09:44;;;;;;;8.15;5.90;;;15.40;99.90;;;;;;7383464;19;20155;-73
2022/10/20 00:12:10;;;;;;;7.65;5.38;;;15.40;99.90;;;;;;7389065;19;20217;-73
2022/10/20 00:14:36;;;;;;;7.07;5.60;;;15.40;99.90;;;;;;7389597;19;20535;-73
2022/10/20 00:17:04;;;;;;;8.82;6.03;;;15.30;99.90;;;;;;7389782;19;20158;-71
2022/10/20 00:19:31;;;;;;;7.15;5.15;;;15.10;99.90;;;;;;7388897;19;20143;-73
2022/10/20 00:21:56;;;;;;;9.18;6.00;;;14.90;99.90;;;;;;7390113;19;20146;-71
2022/10/20 00:24:22;;;;;;;9.30;5.15;;;15.00;99.90;;;;;;7392553;19;20138;-73
2022/10/20 00:26:48;;;;;;;6.60;5.15;;;14.80;99.90;;;;;;7388471;19;20139;-72
2022/10/20 00:29:13;;;;;;;6.40;5.00;;;14.70;99.90;;;;;;7385651;19;20135;-72
2022/10/20 00:31:39;;;;;;;8.25;5.22;;;14.70;99.90;;;;;;7385894;19;20139;-74
2022/10/20 00:34:05;;;;;;;6.55;5.20;;;14.60;99.90;;;;;;7385633;19;20154;-72
2022/10/20 00:36:30;;;;;;;9.80;5.82;;;14.70;99.90;;;;;;7383017;19;20153;-72
2022/10/20 00:38:59;;;;;;;6.35;5.00;;;15.00;99.90;;;;;;7384734;19;20457;-72
2022/10/20 00:41:27;;;;;;;6.47;5.18;;;14.80;99.90;;;;;;7389995;19;20224;-72
2022/10/20 00:43:54;;;;;;;7.55;5.13;;;15.00;99.90;;;;;;7392768;19;20505;-71
2022/10/20 00:46:42;;;;;;;8.00;5.35;;;14.70;99.90;;;;;;7393707;19;20142;-73
2022/10/20 00:49:22;;;;;;;6.35;5.05;;;14.90;99.90;;;;;;7390696;19;20156;-73
2022/10/20 00:51:50;;;;;;;8.30;5.57;;;14.80;99.90;;;;;;7394365;19;20138;-72
2022/10/20 00:54:19;;;;;;;6.03;4.50;;;15.00;99.90;;;;;;7393387;19;20506;-72
2022/10/20 00:56:47;;;;;;;9.23;5.60;;;14.80;99.90;;;;;;7392489;19;20138;-71
2022/10/20 00:59:17;;;;;;;8.32;5.70;;;15.10;99.90;;;;;;7387806;19;20210;-72
2022/10/20 01:04:19;;;;;;;8.20;5.65;;;15.00;99.90;;;;;;7355706;19;20205;-72
2022/10/20 01:06:44;;;;;;;5.88;4.65;;;14.40;99.90;;;;;;7391812;19;20185;-72
2022/10/20 01:09:11;;;;;;;6.43;4.88;;;14.30;99.90;;;;;;7393277;19;20903;-73
2022/10/20 01:11:48;;;;;;;9.85;5.60;;;14.50;99.90;;;;;;7395324;19;20149;-72
2022/10/20 01:14:19;;;;;;;9.02;6.43;;;14.20;99.90;;;;;;7392458;19;20910;-73
2022/10/20 01:17:17;;;;;;;9.27;5.55;;;14.40;99.90;;;;;;7386886;19;20784;-72
2022/10/20 01:20:30;;;;;;;6.03;4.90;;;14.50;99.90;;;;;;7392951;19;20206;-71
2022/10/20 01:23:24;;;;;;;6.82;5.65;;;14.40;99.90;;;;;;7392378;19;20154;-72
2022/10/20 01:26:21;;;;;;;7.40;5.55;;;14.60;99.90;;;;;;7392992;19;20150;-73
2022/10/20 01:28:56;;;;;;;12.60;6.03;;;14.70;99.90;;;;;;7392633;19;20161;-73
2022/10/20 01:31:30;;;;;;;6.40;5.00;;;14.40;99.90;;;;;;7393659;19;20142;-71
2022/10/20 01:34:14;;;;;;;7.00;5.25;;;14.40;99.90;;;;;;7392915;19;20146;-73
2022/10/20 01:36:53;;;;;;;7.32;5.00;;;14.50;99.90;;;;;;7388926;19;20157;-72
2022/10/20 01:39:38;;;;;;;7.47;5.45;;;14.60;99.90;;;;;;7392412;19;20139;-72
2022/10/20 01:42:10;;;;;;;8.43;5.53;;;14.60;99.90;;;;;;7392199;19;20146;-72
2022/10/20 01:44:37;;;;;;;6.22;4.97;;;14.20;99.90;;;;;;7392702;19;20135;-71
2022/10/20 01:47:05;;;;;;;7.32;5.13;;;14.30;99.90;;;;;;7390557;19;20235;-72
2022/10/20 01:49:31;;;;;;;8.07;5.85;;;14.60;99.90;;;;;;7391170;19;20167;-73
2022/10/20 01:51:57;;;;;;;8.35;5.80;;;14.80;99.90;;;;;;7391284;19;20135;-74
2022/10/20 01:54:25;;;;;;;6.90;5.77;;;14.70;99.90;;;;;;7393102;19;20221;-71
2022/10/20 01:57:10;;;;;;;7.20;5.60;;;14.80;99.90;;;;;;7391170;19;20135;-72
2022/10/20 01:59:54;;;;;;;7.05;5.10;;;14.80;99.90;;;;;;7391626;19;20142;-73
2022/10/20 02:02:44;;;;;;;9.10;5.80;;;14.90;99.90;;;;;;7391756;19;20154;-73
2022/10/20 02:05:15;;;;;;;6.95;5.10;;;14.90;99.90;;;;;;7389847;19;20183;-73
2022/10/20 02:07:42;;;;;;;8.00;5.15;;;14.90;99.90;;;;;;7390115;19;20131;-73
2022/10/20 02:10:31;;;;;;;7.47;5.60;;;14.90;99.90;;;;;;7390385;19;20591;-72
2022/10/20 02:13:02;;;;;;;9.90;5.53;;;15.10;99.90;;;;;;7392699;19;20135;-72
2022/10/20 02:15:30;;;;;;;6.53;4.80;;;15.00;99.90;;;;;;7389045;19;20206;-73
2022/10/20 02:18:04;;;;;;;8.00;5.73;;;14.90;99.90;;;;;;7392152;19;20141;-73
2022/10/20 02:20:31;;;;;;;9.75;5.85;;;15.00;99.90;;;;;;7392035;19;20134;-73
2022/10/20 02:22:58;;;;;;;7.85;5.60;;;15.00;99.90;;;;;;7392390;19;20137;-73
2022/10/20 02:25:26;;;;;;;9.88;5.93;;;15.10;99.90;;;;;;7389732;19;20705;-72
2022/10/20 02:27:55;;;;;;;9.50;5.72;;;14.80;99.90;;;;;;7392851;19;20631;-72
2022/10/20 02:30:21;;;;;;;8.80;6.05;;;14.90;99.90;;;;;;7389880;19;20134;-73
2022/10/20 02:32:51;;;;;;;7.32;5.20;;;15.00;99.90;;;;;;7390771;19;20153;-73
2022/10/20 02:35:20;;;;;;;8.32;6.15;;;14.90;99.90;;;;;;7390395;19;20198;-72
2022/10/20 02:37:47;;;;;;;8.75;5.55;;;15.10;99.90;;;;;;7391275;19;20153;-72
2022/10/20 02:40:14;;;;;;;11.23;6.10;;;15.00;99.90;;;;;;7391379;19;20514;-73
2022/10/20 02:42:41;;;;;;;9.43;6.50;;;14.90;99.90;;;;;;7390796;19;20134;-76
2022/10/20 02:45:08;;;;;;;10.45;5.90;;;14.90;99.90;;;;;;7389964;19;20150;-74
2022/10/20 02:47:34;;;;;;;10.05;6.63;;;15.00;99.90;;;;;;7390235;19;20143;-75
2022/10/20 02:50:01;;;;;;;7.88;6.03;;;15.00;99.90;;;;;;7388603;19;20595;-76
2022/10/20 02:52:27;;;;;;;9.40;6.07;;;15.00;99.90;;;;;;7388448;19;20134;-76
2022/10/20 02:54:53;;;;;;;9.52;5.97;;;14.90;99.90;;;;;;7389738;19;20218;-75
2022/10/20 02:57:18;;;;;;;10.73;6.50;;;14.90;99.90;;;;;;7390879;19;20135;-74
2022/10/20 02:59:44;;;;;;;9.70;6.40;;;14.40;99.90;;;;;;7390055;19;20254;-75
2022/10/20 03:02:10;;;;;;;7.43;5.22;;;14.50;99.90;;;;;;7387898;19;20150;-75
2022/10/20 03:04:36;;;;;;;8.07;5.47;;;14.80;99.90;;;;;;7390224;19;20499;-74
2022/10/20 03:07:01;;;;;;;7.47;5.60;;;14.90;99.90;;;;;;7388024;19;20514;-75
2022/10/20 03:09:27;;;;;;;7.32;4.95;;;14.90;99.90;;;;;;7389216;19;20131;-75
2022/10/20 03:11:53;;;;;;;8.50;5.53;;;14.90;99.90;;;;;;7391560;19;20217;-75
2022/10/20 03:14:19;;;;;;;8.18;5.90;;;14.60;99.90;;;;;;7390370;19;20145;-75
2022/10/20 03:16:44;;;;;;;8.50;5.90;;;14.70;99.90;;;;;;7388795;19;20578;-77
2022/10/20 03:19:10;;;;;;;8.00;5.78;;;14.60;99.90;;;;;;7388714;19;20157;-75
2022/10/20 03:21:36;;;;;;;9.30;5.60;;;14.60;99.90;;;;;;7390441;19;20579;-76
2022/10/20 03:24:02;;;;;;;8.82;5.70;;;14.80;99.90;;;;;;7390285;19;20519;-75
2022/10/20 03:26:28;;;;;;;9.02;6.05;;;14.80;99.90;;;;;;7393554;19;20580;-74
2022/10/20 03:28:53;;;;;;;8.75;6.22;;;14.80;99.90;;;;;;7390796;19;20138;-75
2022/10/20 03:31:19;;;;;;;12.77;6.10;;;14.80;99.90;;;;;;7392137;19;20482;-75
2022/10/20 03:33:45;;;;;;;7.95;6.07;;;14.80;99.90;;;;;;7394476;19;20146;-75
2022/10/20 03:36:11;;;;;;;8.68;5.18;;;14.30;99.90;;;;;;7395919;19;20130;-74
2022/10/20 03:38:39;;;;;;;9.00;6.45;;;14.40;99.90;;;;;;7394429;19;20518;-75
2022/10/20 03:41:04;;;;;;;7.53;5.90;;;14.40;99.90;;;;;;7398691;19;20122;-74
2022/10/20 03:43:30;;;;;;;5.97;5.13;;;14.60;99.90;;;;;;7396473;19;20134;-75
2022/10/20 03:46:05;;;;;;;7.97;5.50;;;14.70;99.90;;;;;;7393016;19;20164;-75
2022/10/20 03:48:30;;;;;;;9.95;5.72;;;14.30;99.90;;;;;;7388774;19;20237;-75
2022/10/20 03:50:56;;;;;;;8.38;6.30;;;14.30;99.90;;;;;;7392340;19;20983;-76
2022/10/20 03:53:22;;;;;;;8.07;5.80;;;14.70;99.90;;;;;;7390627;19;20168;-75
2022/10/20 03:55:48;;;;;;;10.18;5.88;;;14.60;99.90;;;;;;7388884;19;20142;-76
2022/10/20 03:58:13;;;;;;;8.57;5.82;;;14.70;99.90;;;;;;7390566;19;20130;-75
2022/10/20 04:00:39;;;;;;;8.70;6.20;;;14.70;99.90;;;;;;7389687;19;20134;-76
2022/10/20 04:03:05;;;;;;;8.20;5.57;;;14.70;99.90;;;;;;7387903;19;20277;-75
2022/10/20 04:05:31;;;;;;;10.55;6.40;;;14.60;99.90;;;;;;7387977;19;20161;-74
2022/10/20 04:07:59;;;;;;;9.48;6.05;;;14.70;99.90;;;;;;7389235;19;20924;-75
2022/10/20 04:10:28;;;;;;;7.55;5.90;;;14.70;99.90;;;;;;7388495;19;20138;-75
2022/10/20 04:12:57;;;;;;;10.85;6.13;;;14.50;99.90;;;;;;7386843;19;20611;-76
2022/10/20 04:15:22;;;;;;;12.45;6.55;;;14.60;99.90;;;;;;7392712;19;20143;-75
2022/10/20 04:17:48;;;;;;;9.88;6.15;;;14.70;99.90;;;;;;7394323;19;20142;-75
2022/10/20 04:20:14;;;;;;;10.18;7.18;;;14.60;99.90;;;;;;7394798;19;20491;-75
2022/10/20 04:22:39;;;;;;;8.98;6.55;;;14.70;99.90;;;;;;7394647;19;20142;-75
2022/10/20 04:25:06;;;;;;;7.93;6.10;;;14.80;99.90;;;;;;7394463;19;20197;-75
2022/10/20 04:27:32;;;;;;;9.85;6.93;;;14.90;99.90;;;;;;7394898;19;20145;-76
2022/10/20 04:29:57;;;;;;;8.13;6.43;;;14.80;99.90;;;;;;7391411;19;20498;-76
2022/10/20 04:32:23;;;;;;;9.50;7.18;;;14.80;99.90;;;;;;7393716;19;20219;-76
2022/10/20 04:34:49;;;;;;;8.68;6.57;;;14.70;99.90;;;;;;7392713;19;20139;-75
2022/10/20 04:37:14;;;;;;;8.30;6.78;;;14.40;99.90;;;;;;7393067;19;20146;-75
2022/10/20 04:39:40;;;;;;;9.25;6.05;;;14.60;99.90;;;;;;7389869;19;20146;-76
2022/10/20 04:42:06;;;;;;;8.70;6.22;;;14.80;99.90;;;;;;7393359;19;20600;-76
2022/10/20 04:44:31;;;;;;;11.23;6.28;;;14.80;99.90;;;;;;7393319;19;20139;-75
2022/10/20 04:46:57;;;;;;;11.23;7.03;;;14.80;99.90;;;;;;7394548;19;20139;-76
2022/10/20 04:49:23;;;;;;;10.18;6.38;;;14.80;99.90;;;;;;7391776;19;20154;-76
2022/10/20 04:51:49;;;;;;;9.30;6.20;;;14.70;99.90;;;;;;7392499;19;20182;-76
2022/10/20 04:54:14;;;;;;;10.95;6.80;;;14.70;99.90;;;;;;7395042;19;20153;-76
2022/10/20 04:56:40;;;;;;;10.25;7.05;;;14.80;99.90;;;;;;7389458;19;20207;-75
2022/10/20 04:59:06;;;;;;;11.70;7.82;;;14.90;99.90;;;;;;7390850;19;20143;-75
2022/10/20 05:01:31;;;;;;;13.85;7.45;;;15.00;99.90;;;;;;7393036;19;20145;-75
2022/10/20 05:03:57;;;;;;;9.30;7.13;;;14.90;99.90;;;;;;7389330;19;20161;-76
2022/10/20 05:06:26;;;;;;;10.30;7.00;;;15.00;99.90;;;;;;7391581;19;20157;-74
2022/10/20 05:08:54;;;;;;;11.85;7.20;;;14.90;99.90;;;;;;7393003;19;20655;-75
2022/10/20 05:11:21;;;;;;;10.35;7.03;;;14.80;99.90;;;;;;7394373;19;20533;-76
2022/10/20 05:13:47;;;;;;;9.27;6.82;;;14.90;99.90;;;;;;7392570;19;20146;-76
2022/10/20 05:16:16;;;;;;;10.55;7.22;;;15.00;99.90;;;;;;7389724;19;20168;-76
2022/10/20 05:18:43;;;;;;;11.93;7.07;;;14.90;99.90;;;;;;7390435;19;20146;-75
2022/10/20 05:21:11;;;;;;;9.65;6.90;;;15.00;99.90;;;;;;7396760;19;20138;-76
2022/10/20 05:23:38;;;;;;;11.88;7.03;;;15.00;99.90;;;;;;7392314;19;20138;-76
2022/10/20 05:26:10;;;;;;;11.38;7.18;;;15.00;99.90;;;;;;7391137;19;20126;-76
2022/10/20 05:28:36;;;;;;;12.15;7.53;;;15.00;99.90;;;;;;7388134;19;20146;-76
2022/10/20 05:31:07;;;;;;;10.68;7.55;;;15.00;99.90;;;;;;7392389;19;20500;-74
2022/10/20 05:33:33;;;;;;;11.35;6.43;;;14.90;99.90;;;;;;7394605;19;20130;-75
2022/10/20 05:36:06;;;;;;;10.77;6.70;;;14.90;99.90;;;;;;7392014;19;20161;-76
2022/10/20 05:38:31;;;;;;;11.60;6.82;;;14.90;99.90;;;;;;7388548;19;20139;-76
2022/10/20 05:41:11;;;;;;;10.07;6.95;;;14.90;99.90;;;;;;7392706;19;20134;-76
2022/10/20 05:43:37;;;;;;;10.43;6.50;;;14.90;99.90;;;;;;7389424;19;20180;-74
2022/10/20 05:46:04;;;;;;;11.80;6.50;;;14.80;99.90;;;;;;7387610;19;20160;-75
2022/10/20 05:48:30;;;;;;;10.68;6.53;;;14.70;99.90;;;;;;7388621;19;20618;-76
2022/10/20 05:51:06;;;;;;;11.77;6.60;;;14.70;99.90;;;;;;7387862;19;20150;-73
2022/10/20 05:53:32;;;;;;;10.18;6.68;;;14.80;99.90;;;;;;7387857;19;20130;-75
2022/10/20 05:56:03;;;;;;;11.07;6.90;;;14.90;99.90;;;;;;7387105;19;20134;-73
2022/10/20 05:58:28;;;;;;;9.10;6.60;;;14.90;99.90;;;;;;7391350;19;20131;-73
2022/10/20 06:01:04;;;;;;;11.60;6.32;;;14.80;99.90;;;;;;7391579;19;20142;-75
2022/10/20 06:03:29;;;;;;;9.95;6.35;;;14.90;99.90;;;;;;7390693;19;20153;-76
2022/10/20 06:05:59;;;;;;;12.75;8.02;;;14.90;99.90;;;;;;7387760;19;20154;-76
2022/10/20 06:08:29;;;;;;;11.25;7.18;;;14.90;99.90;;;;;;7389992;19;20161;-76
2022/10/20 06:10:55;;;;;;;14.05;6.95;;;15.00;99.90;;;;;;7391688;19;20146;-76
2022/10/20 06:13:20;;;;;;;10.48;6.10;;;15.00;99.90;;;;;;7390662;19;20171;-77
2022/10/20 06:15:48;;;;;;;9.63;6.10;;;15.00;99.90;;;;;;7386678;19;20225;-77
2022/10/20 06:18:13;;;;;;;11.98;6.93;;;14.90;99.90;;;;;;7390183;19;20146;-76
2022/10/20 06:20:40;;;;;;;9.13;6.38;;;14.90;99.90;;;;;;7387334;19;20155;-76
2022/10/20 06:23:05;;;;;;;11.80;6.53;;;14.90;99.90;;;;;;7388171;19;20636;-76
2022/10/20 06:25:31;;;;;;;7.80;5.75;;;15.00;99.90;;;;;;7385082;19;20158;-74
2022/10/20 06:27:57;;;;;;;11.90;6.65;;;15.00;99.90;;;;;;7384505;19;20152;-76
2022/10/20 06:30:22;;;;;;;9.10;5.95;;;15.00;99.90;;;;;;7389364;19;20218;-74
2022/10/20 06:32:53;;;;;;;9.02;6.50;;;15.10;99.90;;;;;;7388608;19;20166;-75
2022/10/20 06:35:19;;;;;;;13.05;6.13;;;15.10;99.90;;;;;;7389055;19;20154;-76
2022/10/20 06:37:45;;;;;;;9.77;5.22;;;15.10;99.90;;;;;;7389060;19;20131;-74
2022/10/20 06:40:11;;;;;;;9.55;6.25;;;15.20;99.90;;;;;;7388934;19;20159;-75
2022/10/20 06:42:36;;;;;;;8.35;5.78;;;15.20;99.90;;;;;;7389305;19;20508;-75
2022/10/20 06:45:02;;;;;;;10.75;6.55;;;15.10;99.90;;;;;;7389916;19;20162;-75
2022/10/20 06:47:31;;;;;;;7.55;6.38;;;15.10;99.90;;;;;;7389188;19;20154;-75
2022/10/20 06:49:57;;;;;;;9.00;6.32;;;15.10;99.90;;;;;;7388197;19;20158;-75
2022/10/20 06:52:23;;;;;;;8.88;5.80;;;15.20;99.90;;;;;;7390738;19;20139;-76
2022/10/20 06:54:52;;;;;;;9.38;6.47;;;15.20;99.90;;;;;;7389175;19;20178;-76
2022/10/20 06:57:17;;;;;;;9.20;5.90;;;15.30;99.90;;;;;;7389434;19;20832;-75
2022/10/20 06:59:43;;;;;;;8.30;5.95;;;15.30;99.90;;;;;;7389741;19;20151;-77
2022/10/20 07:02:12;;;;;;;12.15;6.45;;;15.30;99.90;;;;;;7388304;19;20170;-75
2022/10/20 07:04:38;;;;;;;9.20;6.60;;;15.30;99.90;;;;;;7390684;19;20218;-76
2022/10/20 07:07:04;;;;;;;9.55;6.88;;;15.40;99.90;;;;;;7394161;19;20130;-76
2022/10/20 07:09:29;;;;;;;10.90;7.03;;;15.40;99.90;;;;;;7392913;19;20452;-76
2022/10/20 07:11:55;;;;;;;11.18;7.28;;;15.30;99.90;;;;;;7392255;19;20135;-76
2022/10/20 07:14:21;;;;;;;10.20;6.60;;;15.40;99.90;;;;;;7392850;19;20142;-75
2022/10/20 07:16:47;;;;;;;10.88;7.28;;;15.30;99.90;;;;;;7388545;19;20131;-75
2022/10/20 07:19:12;;;;;;;10.77;7.35;;;15.10;99.90;;;;;;7392098;19;20567;-75
2022/10/20 07:21:38;;;;;;;13.05;8.15;;;15.20;99.90;;;;;;7390570;19;20134;-76
2022/10/20 07:24:05;;;;;;;10.73;7.22;;;15.30;99.90;;;;;;7391790;19;20534;-75
2022/10/20 07:26:34;;;;;;;9.50;6.82;;;15.30;99.90;;;;;;7394239;19;20641;-75
2022/10/20 07:29:01;;;;;;;10.13;6.78;;;15.40;99.90;;;;;;7398474;19;20134;-74
2022/10/20 07:31:32;;;;;;;10.77;6.18;;;15.30;99.90;;;;;;7398571;19;20651;-75
2022/10/20 07:33:59;;;;;;;7.60;5.45;;;15.30;99.90;;;;;;7397289;19;20243;-75
2022/10/20 07:36:27;;;;;;;7.60;4.78;;;15.20;99.90;;;;;;7394171;19;20167;-74
2022/10/20 07:38:55;;;;;;;8.32;5.38;;;15.30;99.90;;;;;;7390374;19;20145;-76
2022/10/20 07:41:21;;;;;;;6.53;4.47;;;15.40;99.90;;;;;;7389536;19;20467;-76
2022/10/20 07:43:47;;;;;;;5.03;4.03;;;15.50;99.90;;;;;;7390390;19;20141;-75
2022/10/20 07:46:14;;;;;;;8.77;5.32;;;15.50;99.90;;;;;;7388923;19;20187;-75
2022/10/20 07:48:40;;;;;;;6.32;4.40;;;15.50;99.90;;;;;;7385384;19;20131;-75
2022/10/20 07:51:23;;;;;;;6.05;4.30;;;15.60;99.90;;;;;;7388691;19;20142;-76
2022/10/20 07:53:54;;;;;;;5.70;4.32;;;15.70;99.90;;;;;;7387909;19;20175;-76
2022/10/20 07:56:20;;;;;;;6.97;5.13;;;15.80;99.90;;;;;;7387871;19;20130;-75
2022/10/20 07:58:46;;;;;;;7.00;4.70;;;15.90;99.90;;;;;;7388827;19;20137;-75
2022/10/20 08:01:12;;;;;;;6.35;4.57;;;15.90;99.90;;;;;;7386975;19;20147;-76
2022/10/20 08:03:38;;;;;;;5.63;4.75;;;15.90;99.90;;;;;;7386787;19;20161;-76
2022/10/20 08:06:04;;;;;;;5.47;4.10;;;15.90;99.90;;;;;;7384635;19;20150;-76
2022/10/20 08:08:31;;;;;;;5.25;4.00;;;15.90;99.90;;;;;;7385547;19;20142;-75
2022/10/20 08:10:57;;;;;;;5.25;4.60;;;16.10;99.90;;;;;;7386103;19;20153;-75
2022/10/20 08:13:27;;;;;;;4.22;3.65;;;16.00;99.90;;;;;;7387135;19;20644;-75
2022/10/20 08:15:53;;;;;;;5.22;3.72;;;16.00;99.90;;;;;;7386210;19;20138;-75
2022/10/20 08:18:19;;;;;;;5.85;3.80;;;16.00;99.90;;;;;;7388148;19;20127;-76
2022/10/20 08:20:45;;;;;;;5.75;3.95;;;16.00;99.90;;;;;;7385372;19;20140;-76
2022/10/20 08:23:15;;;;;;;4.85;3.40;;;16.20;99.90;;;;;;7384413;19;20143;-76
2022/10/20 08:25:41;;;;;;;4.53;3.58;;;16.30;99.90;;;;;;7384709;19;20457;-75
2022/10/20 08:28:07;;;;;;;5.13;3.47;;;16.20;99.90;;;;;;7385890;19;20516;-76
2022/10/20 08:30:34;;;;;;;4.15;3.08;;;16.30;99.90;;;;;;7387334;19;20143;-75
2022/10/20 08:32:59;;;;;;;5.90;4.60;;;16.10;99.90;;;;;;7387533;19;20138;-75
2022/10/20 08:35:26;;;;;;;6.32;4.20;;;16.10;99.90;;;;;;7384405;19;20131;-75
2022/10/20 08:37:51;;;;;;;5.03;3.90;;;15.80;99.90;;;;;;7385341;19;20134;-75
2022/10/20 08:40:23;;;;;;;3.78;3.28;;;15.90;99.90;;;;;;7386156;19;20162;-75
2022/10/20 08:42:50;;;;;;;4.43;3.55;;;16.10;99.90;;;;;;7387597;19;20156;-76
2022/10/20 08:45:20;;;;;;;5.53;4.50;;;16.30;99.90;;;;;;7386356;19;20143;-75
2022/10/20 08:47:48;;;;;;;5.18;3.67;;;16.30;99.90;;;;;;7385174;19;20554;-74
2022/10/20 08:50:16;;;;;;;4.78;3.25;;;16.40;99.90;;;;;;7386114;19;20135;-76
2022/10/20 08:52:43;;;;;;;5.05;3.10;;;16.30;99.90;;;;;;7387249;19;20134;-75
2022/10/20 08:55:28;;;;;;;8.07;3.78;;;16.50;99.90;;;;;;7384840;19;20138;-76
2022/10/20 08:58:02;;;;;;;5.13;3.70;;;16.60;99.90;;;;;;7383558;19;20595;-75
2022/10/20 09:00:30;;;;;;;4.43;3.72;;;16.70;99.90;;;;;;7388682;19;21153;-75
2022/10/20 09:02:59;;;;;;;6.55;3.95;;;16.60;99.90;;;;;;7391495;19;20186;-74
2022/10/20 09:05:30;;;;;;;5.07;3.78;;;16.80;99.90;;;;;;7398318;19;20189;-75
2022/10/20 09:07:56;;;;;;;5.43;3.58;;;16.60;99.90;;;;;;7392169;19;20142;-75
2022/10/20 09:10:25;;;;;;;10.25;4.43;;;16.50;99.90;;;;;;7395814;19;20531;-76
2022/10/20 09:12:51;;;;;;;9.15;6.75;;;16.70;99.90;;;;;;7392678;19;20150;-75
2022/10/20 09:15:19;;;;;;;10.15;6.25;;;16.80;99.90;;;;;;7392251;19;20138;-76
2022/10/20 09:18:09;;;;;;;7.65;5.35;;;16.90;99.90;;;;;;7391436;19;20170;-76
2022/10/20 09:20:56;;;;;;;4.57;3.70;;;16.90;99.90;;;;;;7390890;19;20219;-74
2022/10/20 09:23:37;;;;;;;6.18;3.88;;;17.10;99.90;;;;;;7392419;19;20131;-75
2022/10/20 09:26:03;;;;;;;4.82;3.47;;;16.90;99.90;;;;;;7393427;19;20145;-75
2022/10/20 09:28:29;;;;;;;4.45;3.15;;;17.20;99.90;;;;;;7391189;19;20135;-74
2022/10/20 09:30:56;;;;;;;5.40;3.10;;;17.20;99.90;;;;;;7392677;19;20135;-75
2022/10/20 09:33:29;;;;;;;7.03;3.38;;;17.20;99.90;;;;;;7393756;19;20658;-75
2022/10/20 09:36:18;;;;;;;4.53;3.13;;;17.10;99.90;;;;;;7393609;19;20211;-76
2022/10/20 09:38:47;;;;;;;6.18;4.20;;;17.10;99.90;;;;;;7393566;19;20126;-74
2022/10/20 09:41:22;;;;;;;5.05;4.05;;;17.10;99.90;;;;;;7392494;19;20194;-75
2022/10/20 09:43:53;;;;;;;5.13;4.07;;;17.10;99.90;;;;;;7392505;19;20163;-76
2022/10/20 09:46:36;;;;;;;6.03;3.28;;;17.10;99.90;;;;;;7393770;19;20127;-76
2022/10/20 09:49:02;;;;;;;3.75;3.05;;;17.20;99.90;;;;;;7392457;19;20145;-76
2022/10/20 09:51:29;;;;;;;3.78;3.38;;;17.20;99.90;;;;;;7391068;19;20615;-75
2022/10/20 09:54:06;;;;;;;6.35;4.00;;;17.30;99.90;;;;;;7397903;19;20577;-74
2022/10/20 09:56:39;;;;;;;3.35;2.83;;;17.20;99.90;;;;;;7391639;19;20134;-75
2022/10/20 09:59:17;;;;;;;4.28;3.15;;;17.20;99.90;;;;;;7389700;19;20537;-74
2022/10/20 10:01:58;;;;;;;5.88;3.63;;;17.30;99.90;;;;;;7396890;19;20143;-75
2022/10/20 10:04:35;;;;;;;3.65;3.10;;;17.30;99.90;;;;;;7389678;19;20222;-75
2022/10/20 10:07:02;;;;;;;7.88;5.95;;;17.30;99.90;;;;;;7393376;19;20134;-75
2022/10/20 10:09:34;;;;;;;6.15;4.70;;;17.20;99.90;;;;;;7390904;19;20306;-75
2022/10/20 10:12:10;;;;;;;5.18;3.92;;;17.30;99.90;;;;;;7389762;19;20133;-75
2022/10/20 10:14:38;;;;;;;6.30;3.88;;;17.40;99.90;;;;;;7392271;19;20130;-76
2022/10/20 10:17:03;;;;;;;4.93;3.95;;;17.30;99.90;;;;;;7391629;19;20710;-75
2022/10/20 10:19:32;;;;;;;4.32;3.42;;;17.30;99.90;;;;;;7390563;19;20131;-75
2022/10/20 10:22:00;;;;;;;4.85;3.58;;;17.30;99.90;;;;;;7391569;19;20131;-74
2022/10/20 10:24:40;;;;;;;4.60;3.50;;;17.40;99.90;;;;;;7393711;19;20166;-74
2022/10/20 10:27:32;;;;;;;5.10;3.20;;;17.60;99.90;;;;;;7388843;19;20134;-75
2022/10/20 10:30:26;;;;;;;6.53;3.35;;;17.60;99.90;;;;;;7387317;19;20597;-74
2022/10/20 10:32:53;;;;;;;6.82;3.50;;;17.60;99.90;;;;;;7389377;19;20153;-74
2022/10/20 10:35:39;;;;;;;5.05;3.30;;;17.70;99.90;;;;;;7389615;19;20138;-74
2022/10/20 10:38:12;;;;;;;5.43;3.30;;;17.60;99.90;;;;;;7392207;19;20135;-73
2022/10/20 10:40:50;;;;;;;5.25;3.03;;;17.50;99.90;;;;;;7390309;19;20214;-75
2022/10/20 10:43:47;;;;;;;3.78;3.30;;;17.50;99.90;;;;;;7390036;19;20201;-75
2022/10/20 10:46:18;;;;;;;4.65;3.83;;;17.70;99.90;;;;;;7391271;19;20632;-75
2022/10/20 10:48:49;;;;;;;4.72;3.28;;;17.70;99.90;;;;;;7393010;19;20134;-75
2022/10/20 10:51:37;;;;;;;4.63;3.70;;;17.80;99.90;;;;;;7387261;19;20158;-75
2022/10/20 10:54:19;;;;;;;4.20;3.28;;;17.80;99.90;;;;;;7391477;19;20603;-75
2022/10/20 10:56:55;;;;;;;4.10;3.28;;;17.80;99.90;;;;;;7387987;19;20150;-75
2022/10/20 10:59:42;;;;;;;7.55;3.40;;;17.80;99.90;;;;;;7388725;19;20583;-74
2022/10/20 11:02:41;;;;;;;4.97;3.65;;;17.70;99.90;;;;;;7390425;19;20651;-74
2022/10/20 11:05:22;;;;;;;3.85;3.20;;;17.80;99.90;;;;;;7391333;19;20257;-75
2022/10/20 11:08:03;;;;;;;5.35;2.92;;;17.70;99.90;;;;;;7388053;19;20154;-74
2022/10/20 11:11:00;;;;;;;3.90;3.10;;;17.80;99.90;;;;;;7391220;19;20177;-75
2022/10/20 11:13:41;;;;;;;4.60;3.17;;;17.80;99.90;;;;;;7390390;19;20226;-75
2022/10/20 11:16:09;;;;;;;4.50;3.42;;;17.80;99.90;;;;;;7387546;19;20153;-75
2022/10/20 11:19:06;;;;;;;6.28;3.15;;;17.80;99.90;;;;;;7387965;19;20174;-75
2022/10/20 11:22:03;;;;;;;4.30;3.10;;;17.70;99.90;;;;;;7386928;19;20146;-76
2022/10/20 11:24:51;;;;;;;4.95;3.28;;;17.80;99.90;;;;;;7388737;19;20520;-75
2022/10/20 11:27:32;;;;;;;4.53;3.53;;;17.80;99.90;;;;;;7388511;19;20154;-75
2022/10/20 11:30:07;;;;;;;7.45;5.72;;;17.90;99.90;;;;;;7388629;19;20149;-74
2022/10/20 11:32:41;;;;;;;5.93;3.80;;;17.90;99.90;;;;;;7387772;19;20156;-75
2022/10/20 11:35:06;;;;;;;5.82;3.30;;;17.90;99.90;;;;;;7387479;19;20201;-75
2022/10/20 11:37:45;;;;;;;6.30;4.95;;;18.00;99.90;;;;;;7387272;19;20628;-74
2022/10/20 11:40:15;;;;;;;6.72;3.28;;;18.10;99.90;;;;;;7388596;19;20138;-75
2022/10/20 11:43:03;;;;;;;7.47;3.92;;;18.10;99.90;;;;;;7393712;19;20558;-75
2022/10/20 11:45:38;;;;;;;3.40;3.05;;;18.00;99.90;;;;;;7386765;19;20188;-74
2022/10/20 11:48:22;;;;;;;4.65;3.50;;;18.00;99.90;;;;;;7390024;19;20138;-75
2022/10/20 11:50:59;;;;;;;4.70;3.00;;;18.00;99.90;;;;;;7387809;19;20645;-76
2022/10/20 11:53:40;;;;;;;3.17;2.83;;;18.00;99.90;;;;;;7387952;19;20638;-76
2022/10/20 11:56:27;;;;;;;5.38;2.85;;;18.00;99.90;;;;;;7387546;19;20163;-75
2022/10/20 11:58:55;;;;;;;4.32;3.13;;;18.10;99.90;;;;;;7388596;19;20150;-75
2022/10/20 12:01:30;;;;;;;12.70;8.80;;;18.00;99.90;;;;;;7391948;19;20138;-76
2022/10/20 12:04:11;;;;;;;7.55;3.85;;;17.90;99.90;;;;;;7391280;19;20481;-75
2022/10/20 12:07:06;;;;;;;4.78;3.05;;;17.90;99.90;;;;;;7393739;19;20170;-75
2022/10/20 12:09:59;;;;;;;5.53;4.00;;;18.10;99.90;;;;;;7390865;19;20130;-75
2022/10/20 12:12:34;;;;;;;4.70;2.90;;;18.20;99.90;;;;;;7393534;19;20118;-76
2022/10/20 12:15:14;;;;;;;4.38;2.95;;;18.10;99.90;;;;;;7392865;19;20153;-74
2022/10/20 12:17:43;;;;;;;4.53;2.33;;;18.00;99.90;;;;;;7395022;19;20160;-75
2022/10/20 12:20:28;;;;;;;4.70;2.88;;;17.90;99.90;;;;;;7393015;19;20147;-75
2022/10/20 12:23:00;;;;;;;3.85;2.97;;;18.00;99.90;;;;;;7388383;19;20151;-75
2022/10/20 12:25:26;;;;;;;3.83;2.53;;;18.00;99.90;;;;;;7389849;19;20155;-75
2022/10/20 12:28:23;;;;;;;3.65;2.72;;;17.90;99.90;;;;;;7389686;19;20170;-75
2022/10/20 12:30:55;;;;;;;2.95;2.65;;;18.00;99.90;;;;;;7392065;19;20130;-76
2022/10/20 12:33:37;;;;;;;5.22;2.90;;;18.00;99.90;;;;;;7389198;19;20166;-75
2022/10/20 12:36:25;;;;;;;4.07;2.83;;;18.30;99.90;;;;;;7394605;19;20483;-75
2022/10/20 12:39:05;;;;;;;4.68;2.75;;;18.30;99.90;;;;;;7398672;19;20157;-76
2022/10/20 12:41:34;;;;;;;4.00;2.85;;;18.20;99.90;;;;;;7401421;19;20177;-75
2022/10/20 12:44:14;;;;;;;4.95;2.80;;;18.10;99.90;;;;;;7398022;19;20126;-75
2022/10/20 12:46:50;;;;;;;4.38;3.10;;;18.20;99.90;;;;;;7398727;19;20141;-75
2022/10/20 12:49:28;;;;;;;5.97;2.80;;;18.10;99.90;;;;;;7397705;19;20214;-75
2022/10/20 12:51:56;;;;;;;10.10;3.03;;;18.10;99.90;;;;;;7393692;19;20173;-75
2022/10/20 12:54:39;;;;;;;3.35;2.58;;;18.10;99.90;;;;;;7395906;19;20546;-76
2022/10/20 12:57:30;;;;;;;4.43;2.95;;;18.00;99.90;;;;;;7390265;19;20782;-75
2022/10/20 12:59:56;;;;;;;7.40;2.83;;;17.90;99.90;;;;;;7394474;19;20214;-74
2022/10/20 13:02:22;;;;;;;6.78;5.20;;;17.90;99.90;;;;;;7393174;19;20585;-75
2022/10/20 13:05:06;;;;;;;4.35;3.15;;;18.00;99.90;;;;;;7392253;19;20722;-76
2022/10/20 13:07:47;;;;;;;6.85;2.80;;;18.00;99.90;;;;;;7392355;19;20142;-76